sensor_id;sensor_type;location;lat;lon;timestamp;pressure;altitude;pressure_sealevel;temperature;humidity
85641;BME280;76065;47.182;27.506;2024-03-22T00:00:13;100898.56;;;4.96;100.00
85641;BME280;76065;47.182;27.506;2024-03-22T00:02:39;100894.06;;;5.13;99.39
85641;BME280;76065;47.182;27.506;2024-03-22T00:05:05;100882.19;;;5.21;98.30
85641;BME280;76065;47.182;27.506;2024-03-22T00:07:30;100892.44;;;5.12;97.89
85641;BME280;76065;47.182;27.506;2024-03-22T00:09:56;100896.38;;;5.10;98.17
85641;BME280;76065;47.182;27.506;2024-03-22T00:12:22;100892.84;;;5.04;98.74
85641;BME280;76065;47.182;27.506;2024-03-22T00:14:48;100889.13;;;5.05;99.09
85641;BME280;76065;47.182;27.506;2024-03-22T00:17:14;100882.31;;;5.14;98.33
85641;BME280;76065;47.182;27.506;2024-03-22T00:19:39;100884.66;;;5.11;98.41
85641;BME280;76065;47.182;27.506;2024-03-22T00:22:05;100894.41;;;5.17;97.95
85641;BME280;76065;47.182;27.506;2024-03-22T00:24:31;100888.25;;;5.16;97.57
85641;BME280;76065;47.182;27.506;2024-03-22T00:26:56;100902.00;;;5.25;97.05
85641;BME280;76065;47.182;27.506;2024-03-22T00:29:22;100892.06;;;5.21;97.27
85641;BME280;76065;47.182;27.506;2024-03-22T00:31:47;100896.00;;;5.18;97.42
85641;BME280;76065;47.182;27.506;2024-03-22T00:34:13;100881.66;;;5.07;97.76
85641;BME280;76065;47.182;27.506;2024-03-22T00:36:39;100879.22;;;5.06;97.43
85641;BME280;76065;47.182;27.506;2024-03-22T00:39:04;100882.63;;;5.01;97.43
85641;BME280;76065;47.182;27.506;2024-03-22T00:41:30;100884.63;;;4.94;97.59
85641;BME280;76065;47.182;27.506;2024-03-22T00:43:57;100886.91;;;5.02;98.34
85641;BME280;76065;47.182;27.506;2024-03-22T00:46:23;100893.38;;;5.06;97.34
85641;BME280;76065;47.182;27.506;2024-03-22T00:48:49;100894.78;;;5.09;97.16
85641;BME280;76065;47.182;27.506;2024-03-22T00:51:14;100893.31;;;5.18;97.35
85641;BME280;76065;47.182;27.506;2024-03-22T00:53:40;100903.34;;;5.11;97.44
85641;BME280;76065;47.182;27.506;2024-03-22T00:56:06;100887.72;;;5.03;97.41
85641;BME280;76065;47.182;27.506;2024-03-22T00:58:32;100882.53;;;4.96;97.60
85641;BME280;76065;47.182;27.506;2024-03-22T01:00:58;100891.53;;;5.07;97.63
85641;BME280;76065;47.182;27.506;2024-03-22T01:03:24;100892.03;;;5.04;97.60
85641;BME280;76065;47.182;27.506;2024-03-22T01:05:50;100891.63;;;5.12;97.62
85641;BME280;76065;47.182;27.506;2024-03-22T01:08:15;100886.53;;;5.27;96.56
85641;BME280;76065;47.182;27.506;2024-03-22T01:10:41;100883.31;;;5.25;96.45
85641;BME280;76065;47.182;27.506;2024-03-22T01:13:07;100883.72;;;5.17;96.38
85641;BME280;76065;47.182;27.506;2024-03-22T01:15:33;100873.59;;;5.19;96.90
85641;BME280;76065;47.182;27.506;2024-03-22T01:17:59;100885.47;;;5.11;96.65
85641;BME280;76065;47.182;27.506;2024-03-22T01:20:24;100869.03;;;5.03;97.52
85641;BME280;76065;47.182;27.506;2024-03-22T01:22:50;100880.13;;;5.11;96.46
85641;BME280;76065;47.182;27.506;2024-03-22T01:25:16;100862.56;;;4.99;96.78
85641;BME280;76065;47.182;27.506;2024-03-22T01:27:41;100874.16;;;5.04;97.30
85641;BME280;76065;47.182;27.506;2024-03-22T01:30:07;100878.09;;;5.02;97.39
85641;BME280;76065;47.182;27.506;2024-03-22T01:32:35;100864.50;;;5.03;97.49
85641;BME280;76065;47.182;27.506;2024-03-22T01:35:00;100851.88;;;4.99;97.59
85641;BME280;76065;47.182;27.506;2024-03-22T01:37:26;100858.03;;;4.99;97.73
85641;BME280;76065;47.182;27.506;2024-03-22T01:39:52;100851.56;;;4.95;97.37
85641;BME280;76065;47.182;27.506;2024-03-22T01:42:18;100848.16;;;5.00;97.64
85641;BME280;76065;47.182;27.506;2024-03-22T01:44:43;100843.00;;;4.93;96.97
85641;BME280;76065;47.182;27.506;2024-03-22T01:47:09;100851.22;;;4.92;97.57
85641;BME280;76065;47.182;27.506;2024-03-22T01:49:35;100834.97;;;4.93;97.63
85641;BME280;76065;47.182;27.506;2024-03-22T01:52:01;100843.38;;;5.02;96.81
85641;BME280;76065;47.182;27.506;2024-03-22T01:54:28;100823.88;;;4.85;96.92
85641;BME280;76065;47.182;27.506;2024-03-22T01:56:56;100840.56;;;4.92;97.38
85641;BME280;76065;47.182;27.506;2024-03-22T01:59:22;100841.16;;;4.82;97.77
85641;BME280;76065;47.182;27.506;2024-03-22T02:01:48;100839.56;;;4.81;97.93
85641;BME280;76065;47.182;27.506;2024-03-22T02:04:14;100841.44;;;4.81;98.00
85641;BME280;76065;47.182;27.506;2024-03-22T02:06:40;100844.91;;;4.81;97.94
85641;BME280;76065;47.182;27.506;2024-03-22T02:09:07;100846.34;;;4.72;98.07
85641;BME280;76065;47.182;27.506;2024-03-22T02:11:36;100859.41;;;4.73;99.00
85641;BME280;76065;47.182;27.506;2024-03-22T02:14:03;100857.44;;;4.81;98.39
85641;BME280;76065;47.182;27.506;2024-03-22T02:16:29;100854.50;;;4.82;98.32
85641;BME280;76065;47.182;27.506;2024-03-22T02:18:55;100853.28;;;4.73;99.02
85641;BME280;76065;47.182;27.506;2024-03-22T02:21:21;100852.91;;;4.81;98.71
85641;BME280;76065;47.182;27.506;2024-03-22T02:23:46;100860.16;;;4.69;99.20
85641;BME280;76065;47.182;27.506;2024-03-22T02:26:12;100854.22;;;4.67;98.94
85641;BME280;76065;47.182;27.506;2024-03-22T02:28:38;100851.09;;;4.70;98.80
85641;BME280;76065;47.182;27.506;2024-03-22T02:31:04;100854.06;;;4.73;99.33
85641;BME280;76065;47.182;27.506;2024-03-22T02:33:29;100861.97;;;4.80;98.67
85641;BME280;76065;47.182;27.506;2024-03-22T02:35:55;100850.84;;;4.71;98.52
85641;BME280;76065;47.182;27.506;2024-03-22T02:38:22;100849.38;;;4.64;99.45
85641;BME280;76065;47.182;27.506;2024-03-22T02:40:49;100859.78;;;4.77;99.73
85641;BME280;76065;47.182;27.506;2024-03-22T02:43:15;100848.72;;;4.85;99.00
85641;BME280;76065;47.182;27.506;2024-03-22T02:45:43;100847.81;;;4.80;98.83
85641;BME280;76065;47.182;27.506;2024-03-22T02:48:08;100852.81;;;4.76;98.83
85641;BME280;76065;47.182;27.506;2024-03-22T02:50:35;100856.13;;;4.83;98.89
85641;BME280;76065;47.182;27.506;2024-03-22T02:53:01;100850.38;;;4.75;98.94
85641;BME280;76065;47.182;27.506;2024-03-22T02:55:26;100861.03;;;4.75;99.29
85641;BME280;76065;47.182;27.506;2024-03-22T02:57:52;100852.72;;;4.71;99.41
85641;BME280;76065;47.182;27.506;2024-03-22T03:00:18;100853.63;;;4.77;99.41
85641;BME280;76065;47.182;27.506;2024-03-22T03:02:45;100848.03;;;4.78;98.78
85641;BME280;76065;47.182;27.506;2024-03-22T03:05:11;100849.50;;;4.86;99.19
85641;BME280;76065;47.182;27.506;2024-03-22T03:07:36;100837.22;;;4.85;99.04
85641;BME280;76065;47.182;27.506;2024-03-22T03:10:02;100843.13;;;4.87;99.02
85641;BME280;76065;47.182;27.506;2024-03-22T03:12:28;100846.59;;;4.87;98.82
85641;BME280;76065;47.182;27.506;2024-03-22T03:14:53;100851.84;;;4.82;98.83
85641;BME280;76065;47.182;27.506;2024-03-22T03:17:19;100851.13;;;4.87;98.54
85641;BME280;76065;47.182;27.506;2024-03-22T03:19:45;100843.03;;;4.82;98.99
85641;BME280;76065;47.182;27.506;2024-03-22T03:22:10;100842.06;;;4.88;98.26
85641;BME280;76065;47.182;27.506;2024-03-22T03:24:36;100847.31;;;4.83;98.54
85641;BME280;76065;47.182;27.506;2024-03-22T03:27:02;100844.53;;;4.89;98.23
85641;BME280;76065;47.182;27.506;2024-03-22T03:29:28;100842.78;;;4.83;97.70
85641;BME280;76065;47.182;27.506;2024-03-22T03:31:54;100841.66;;;4.79;97.93
85641;BME280;76065;47.182;27.506;2024-03-22T03:34:19;100845.34;;;4.78;97.85
85641;BME280;76065;47.182;27.506;2024-03-22T03:36:46;100837.13;;;4.80;98.65
85641;BME280;76065;47.182;27.506;2024-03-22T03:39:11;100842.56;;;4.85;97.27
85641;BME280;76065;47.182;27.506;2024-03-22T03:41:37;100847.69;;;4.75;98.53
85641;BME280;76065;47.182;27.506;2024-03-22T03:44:03;100841.81;;;4.72;98.79
85641;BME280;76065;47.182;27.506;2024-03-22T03:46:28;100846.19;;;4.79;98.38
85641;BME280;76065;47.182;27.506;2024-03-22T03:48:54;100845.47;;;4.83;98.81
85641;BME280;76065;47.182;27.506;2024-03-22T03:51:20;100845.56;;;4.88;98.09
85641;BME280;76065;47.182;27.506;2024-03-22T03:53:45;100837.56;;;4.88;98.12
85641;BME280;76065;47.182;27.506;2024-03-22T03:56:11;100846.38;;;4.89;97.51
85641;BME280;76065;47.182;27.506;2024-03-22T03:58:36;100842.47;;;4.80;98.48
85641;BME280;76065;47.182;27.506;2024-03-22T04:01:06;100850.56;;;4.85;97.89
85641;BME280;76065;47.182;27.506;2024-03-22T04:03:32;100848.84;;;4.79;98.47
85641;BME280;76065;47.182;27.506;2024-03-22T04:05:58;100858.69;;;4.78;98.89
85641;BME280;76065;47.182;27.506;2024-03-22T04:08:25;100846.44;;;4.77;98.92
85641;BME280;76065;47.182;27.506;2024-03-22T04:10:52;100845.69;;;4.82;98.52
85641;BME280;76065;47.182;27.506;2024-03-22T04:13:18;100852.97;;;4.86;98.17
85641;BME280;76065;47.182;27.506;2024-03-22T04:15:44;100849.44;;;4.81;97.56
85641;BME280;76065;47.182;27.506;2024-03-22T04:18:09;100860.44;;;4.84;98.40
85641;BME280;76065;47.182;27.506;2024-03-22T04:20:35;100846.75;;;4.81;98.36
85641;BME280;76065;47.182;27.506;2024-03-22T04:23:00;100831.94;;;4.73;98.05
85641;BME280;76065;47.182;27.506;2024-03-22T04:25:26;100860.47;;;5.01;97.70
85641;BME280;76065;47.182;27.506;2024-03-22T04:27:52;100864.66;;;4.97;97.21
85641;BME280;76065;47.182;27.506;2024-03-22T04:30:17;100851.72;;;4.89;97.45
85641;BME280;76065;47.182;27.506;2024-03-22T04:32:46;100854.38;;;4.89;97.45
85641;BME280;76065;47.182;27.506;2024-03-22T04:35:11;100871.91;;;4.85;98.35
85641;BME280;76065;47.182;27.506;2024-03-22T04:37:37;100866.59;;;4.85;97.92
85641;BME280;76065;47.182;27.506;2024-03-22T04:40:03;100868.66;;;4.83;98.77
85641;BME280;76065;47.182;27.506;2024-03-22T04:42:29;100862.22;;;4.95;98.12
85641;BME280;76065;47.182;27.506;2024-03-22T04:44:54;100870.44;;;5.05;97.98
85641;BME280;76065;47.182;27.506;2024-03-22T04:47:20;100871.31;;;5.11;97.36
85641;BME280;76065;47.182;27.506;2024-03-22T04:49:46;100863.69;;;5.03;97.38
85641;BME280;76065;47.182;27.506;2024-03-22T04:52:11;100868.97;;;5.14;97.48
85641;BME280;76065;47.182;27.506;2024-03-22T04:54:37;100872.53;;;5.20;98.10
85641;BME280;76065;47.182;27.506;2024-03-22T04:57:03;100863.06;;;5.12;97.50
85641;BME280;76065;47.182;27.506;2024-03-22T04:59:28;100872.63;;;5.25;97.16
85641;BME280;76065;47.182;27.506;2024-03-22T05:01:54;100885.09;;;5.36;96.97
85641;BME280;76065;47.182;27.506;2024-03-22T05:04:20;100882.75;;;5.40;97.00
85641;BME280;76065;47.182;27.506;2024-03-22T05:06:45;100864.47;;;5.32;96.87
85641;BME280;76065;47.182;27.506;2024-03-22T05:09:11;100889.97;;;5.39;97.08
85641;BME280;76065;47.182;27.506;2024-03-22T05:11:36;100879.06;;;5.57;96.19
85641;BME280;76065;47.182;27.506;2024-03-22T05:14:02;100869.00;;;5.64;95.54
85641;BME280;76065;47.182;27.506;2024-03-22T05:16:28;100871.25;;;5.73;95.36
85641;BME280;76065;47.182;27.506;2024-03-22T05:18:54;100868.41;;;5.79;94.44
85641;BME280;76065;47.182;27.506;2024-03-22T05:21:19;100863.56;;;5.76;93.74
85641;BME280;76065;47.182;27.506;2024-03-22T05:23:45;100871.50;;;5.88;93.89
85641;BME280;76065;47.182;27.506;2024-03-22T05:26:11;100878.13;;;6.02;93.62
85641;BME280;76065;47.182;27.506;2024-03-22T05:28:37;100882.63;;;6.18;93.11
85641;BME280;76065;47.182;27.506;2024-03-22T05:31:02;100880.22;;;6.17;92.09
85641;BME280;76065;47.182;27.506;2024-03-22T05:33:28;100873.06;;;6.44;92.15
85641;BME280;76065;47.182;27.506;2024-03-22T05:35:53;100876.28;;;6.68;91.37
85641;BME280;76065;47.182;27.506;2024-03-22T05:38:19;100885.41;;;6.93;90.32
85641;BME280;76065;47.182;27.506;2024-03-22T05:40:45;100877.13;;;7.22;89.57
85641;BME280;76065;47.182;27.506;2024-03-22T05:43:13;100878.69;;;7.49;88.76
85641;BME280;76065;47.182;27.506;2024-03-22T05:45:39;100878.84;;;7.75;86.44
85641;BME280;76065;47.182;27.506;2024-03-22T05:48:05;100874.59;;;7.74;86.48
85641;BME280;76065;47.182;27.506;2024-03-22T05:50:31;100868.69;;;7.77;85.58
85641;BME280;76065;47.182;27.506;2024-03-22T05:52:56;100876.50;;;7.83;84.27
85641;BME280;76065;47.182;27.506;2024-03-22T05:55:22;100871.19;;;7.88;84.14
85641;BME280;76065;47.182;27.506;2024-03-22T05:57:48;100876.44;;;8.10;83.72
85641;BME280;76065;47.182;27.506;2024-03-22T06:00:13;100875.41;;;8.21;83.77
85641;BME280;76065;47.182;27.506;2024-03-22T06:02:39;100874.97;;;8.34;82.71
85641;BME280;76065;47.182;27.506;2024-03-22T06:05:05;100878.28;;;8.62;82.29
85641;BME280;76065;47.182;27.506;2024-03-22T06:07:30;100881.59;;;8.89;80.75
85641;BME280;76065;47.182;27.506;2024-03-22T06:10:04;100888.53;;;8.70;80.83
85641;BME280;76065;47.182;27.506;2024-03-22T06:12:30;100883.31;;;8.43;81.47
85641;BME280;76065;47.182;27.506;2024-03-22T06:14:56;100880.22;;;8.14;81.75
85641;BME280;76065;47.182;27.506;2024-03-22T06:17:22;100885.41;;;7.89;83.40
85641;BME280;76065;47.182;27.506;2024-03-22T06:19:47;100885.44;;;7.57;84.82
85641;BME280;76065;47.182;27.506;2024-03-22T06:22:13;100910.38;;;7.26;87.35
85641;BME280;76065;47.182;27.506;2024-03-22T06:24:38;100903.91;;;7.22;87.44
85641;BME280;76065;47.182;27.506;2024-03-22T06:27:05;100910.50;;;7.14;86.67
85641;BME280;76065;47.182;27.506;2024-03-22T06:29:30;100909.66;;;7.09;87.15
85641;BME280;76065;47.182;27.506;2024-03-22T06:31:56;100910.34;;;6.99;88.44
85641;BME280;76065;47.182;27.506;2024-03-22T06:34:22;100913.75;;;7.16;87.20
85641;BME280;76065;47.182;27.506;2024-03-22T06:36:47;100912.94;;;7.16;86.88
85641;BME280;76065;47.182;27.506;2024-03-22T06:39:13;100913.38;;;7.07;87.69
85641;BME280;76065;47.182;27.506;2024-03-22T06:41:39;100913.16;;;7.09;86.87
85641;BME280;76065;47.182;27.506;2024-03-22T06:44:05;100911.91;;;6.95;86.52
85641;BME280;76065;47.182;27.506;2024-03-22T06:46:31;100911.78;;;7.33;87.39
85641;BME280;76065;47.182;27.506;2024-03-22T06:48:57;100914.19;;;7.67;84.86
85641;BME280;76065;47.182;27.506;2024-03-22T06:51:23;100909.75;;;7.82;82.71
85641;BME280;76065;47.182;27.506;2024-03-22T06:53:49;100912.56;;;7.97;83.10
85641;BME280;76065;47.182;27.506;2024-03-22T06:56:14;100907.00;;;8.09;81.83
85641;BME280;76065;47.182;27.506;2024-03-22T06:58:40;100911.72;;;8.39;79.41
85641;BME280;76065;47.182;27.506;2024-03-22T07:01:06;100911.03;;;8.64;80.82
85641;BME280;76065;47.182;27.506;2024-03-22T07:03:31;100909.22;;;8.74;80.23
85641;BME280;76065;47.182;27.506;2024-03-22T07:05:57;100911.59;;;8.66;78.99
85641;BME280;76065;47.182;27.506;2024-03-22T07:08:26;100908.44;;;8.84;77.07
85641;BME280;76065;47.182;27.506;2024-03-22T07:10:52;100915.44;;;8.90;77.46
85641;BME280;76065;47.182;27.506;2024-03-22T07:13:20;100916.00;;;9.07;77.60
85641;BME280;76065;47.182;27.506;2024-03-22T07:15:46;100904.94;;;8.78;79.10
85641;BME280;76065;47.182;27.506;2024-03-22T07:18:14;100910.03;;;8.80;79.38
85641;BME280;76065;47.182;27.506;2024-03-22T07:20:41;100914.38;;;8.86;78.46
85641;BME280;76065;47.182;27.506;2024-03-22T07:23:06;100899.28;;;8.80;77.07
85641;BME280;76065;47.182;27.506;2024-03-22T07:25:32;100901.97;;;8.80;77.85
85641;BME280;76065;47.182;27.506;2024-03-22T07:27:58;100914.72;;;8.48;79.51
85641;BME280;76065;47.182;27.506;2024-03-22T07:30:24;100911.63;;;8.24;79.36
85641;BME280;76065;47.182;27.506;2024-03-22T07:32:50;100912.44;;;8.24;79.21
85641;BME280;76065;47.182;27.506;2024-03-22T07:35:15;100913.06;;;8.36;78.56
85641;BME280;76065;47.182;27.506;2024-03-22T07:37:41;100916.28;;;8.33;79.42
85641;BME280;76065;47.182;27.506;2024-03-22T07:40:07;100913.53;;;8.28;78.88
85641;BME280;76065;47.182;27.506;2024-03-22T07:42:33;100921.59;;;8.28;79.86
85641;BME280;76065;47.182;27.506;2024-03-22T07:44:58;100922.13;;;8.25;81.09
85641;BME280;76065;47.182;27.506;2024-03-22T07:47:24;100922.13;;;8.25;81.44
85641;BME280;76065;47.182;27.506;2024-03-22T07:49:50;100912.16;;;8.21;79.89
85641;BME280;76065;47.182;27.506;2024-03-22T07:52:16;100911.19;;;8.37;78.39
85641;BME280;76065;47.182;27.506;2024-03-22T07:54:41;100909.94;;;8.50;77.01
85641;BME280;76065;47.182;27.506;2024-03-22T07:57:07;100925.56;;;8.68;78.16
85641;BME280;76065;47.182;27.506;2024-03-22T07:59:32;100909.47;;;8.73;76.67
85641;BME280;76065;47.182;27.506;2024-03-22T08:01:58;100906.75;;;8.58;76.52
85641;BME280;76065;47.182;27.506;2024-03-22T08:04:24;100906.16;;;8.45;77.64
85641;BME280;76065;47.182;27.506;2024-03-22T08:06:53;100913.41;;;8.08;81.68
85641;BME280;76065;47.182;27.506;2024-03-22T08:09:18;100913.31;;;7.93;81.52
85641;BME280;76065;47.182;27.506;2024-03-22T08:11:45;100912.94;;;7.79;82.36
85641;BME280;76065;47.182;27.506;2024-03-22T08:14:10;100910.06;;;7.91;82.06
85641;BME280;76065;47.182;27.506;2024-03-22T08:16:36;100911.25;;;8.05;80.07
85641;BME280;76065;47.182;27.506;2024-03-22T08:19:01;100908.06;;;8.08;79.50
85641;BME280;76065;47.182;27.506;2024-03-22T08:21:27;100895.16;;;8.05;78.96
85641;BME280;76065;47.182;27.506;2024-03-22T08:23:53;100895.81;;;8.27;77.59
85641;BME280;76065;47.182;27.506;2024-03-22T08:26:19;100898.91;;;8.46;76.67
85641;BME280;76065;47.182;27.506;2024-03-22T08:28:48;100901.88;;;8.50;77.64
85641;BME280;76065;47.182;27.506;2024-03-22T08:31:14;100901.41;;;8.68;76.45
85641;BME280;76065;47.182;27.506;2024-03-22T08:33:39;100911.41;;;8.82;77.61
85641;BME280;76065;47.182;27.506;2024-03-22T08:36:05;100888.88;;;9.04;75.22
85641;BME280;76065;47.182;27.506;2024-03-22T08:38:31;100900.47;;;9.24;74.47
85641;BME280;76065;47.182;27.506;2024-03-22T08:40:57;100898.34;;;9.47;73.60
85641;BME280;76065;47.182;27.506;2024-03-22T08:43:22;100895.63;;;9.52;73.52
85641;BME280;76065;47.182;27.506;2024-03-22T08:45:51;100896.47;;;9.62;74.40
85641;BME280;76065;47.182;27.506;2024-03-22T08:48:17;100880.03;;;9.89;70.34
85641;BME280;76065;47.182;27.506;2024-03-22T08:50:43;100885.09;;;10.06;68.00
85641;BME280;76065;47.182;27.506;2024-03-22T08:53:09;100888.59;;;10.26;67.17
85641;BME280;76065;47.182;27.506;2024-03-22T08:55:34;100886.44;;;10.08;68.53
85641;BME280;76065;47.182;27.506;2024-03-22T08:58:00;100888.91;;;10.79;66.22
85641;BME280;76065;47.182;27.506;2024-03-22T09:00:26;100887.41;;;11.41;63.05
85641;BME280;76065;47.182;27.506;2024-03-22T09:02:52;100896.50;;;11.55;61.88
85641;BME280;76065;47.182;27.506;2024-03-22T09:05:17;100889.47;;;11.88;61.34
85641;BME280;76065;47.182;27.506;2024-03-22T09:07:44;100888.69;;;11.87;59.49
85641;BME280;76065;47.182;27.506;2024-03-22T09:10:10;100885.78;;;11.79;60.80
85641;BME280;76065;47.182;27.506;2024-03-22T09:12:36;100878.72;;;11.49;61.99
85641;BME280;76065;47.182;27.506;2024-03-22T09:15:02;100885.88;;;11.97;60.77
85641;BME280;76065;47.182;27.506;2024-03-22T09:17:28;100876.81;;;12.78;58.24
85641;BME280;76065;47.182;27.506;2024-03-22T09:19:54;100870.47;;;12.88;58.59
85641;BME280;76065;47.182;27.506;2024-03-22T09:22:20;100875.34;;;13.04;59.49
85641;BME280;76065;47.182;27.506;2024-03-22T09:24:45;100870.97;;;13.08;56.48
85641;BME280;76065;47.182;27.506;2024-03-22T09:27:11;100876.50;;;12.37;58.32
85641;BME280;76065;47.182;27.506;2024-03-22T09:29:37;100878.44;;;13.17;58.30
85641;BME280;76065;47.182;27.506;2024-03-22T09:32:02;100865.91;;;12.64;60.00
85641;BME280;76065;47.182;27.506;2024-03-22T09:34:29;100868.31;;;12.66;56.04
85641;BME280;76065;47.182;27.506;2024-03-22T09:36:57;100868.47;;;12.93;55.41
85641;BME280;76065;47.182;27.506;2024-03-22T09:39:23;100875.00;;;12.50;57.36
85641;BME280;76065;47.182;27.506;2024-03-22T09:41:50;100858.91;;;11.92;61.95
85641;BME280;76065;47.182;27.506;2024-03-22T09:44:18;100862.22;;;11.84;60.10
85641;BME280;76065;47.182;27.506;2024-03-22T09:46:46;100863.31;;;11.54;60.16
85641;BME280;76065;47.182;27.506;2024-03-22T09:49:12;100862.03;;;11.47;61.73
85641;BME280;76065;47.182;27.506;2024-03-22T09:51:43;100856.75;;;11.60;60.30
85641;BME280;76065;47.182;27.506;2024-03-22T09:54:10;100852.88;;;11.43;61.65
85641;BME280;76065;47.182;27.506;2024-03-22T09:56:40;100863.88;;;11.12;62.14
85641;BME280;76065;47.182;27.506;2024-03-22T09:59:07;100858.09;;;11.29;62.57
85641;BME280;76065;47.182;27.506;2024-03-22T10:01:34;100851.63;;;12.16;59.34
85641;BME280;76065;47.182;27.506;2024-03-22T10:04:00;100851.75;;;12.06;56.90
85641;BME280;76065;47.182;27.506;2024-03-22T10:06:26;100847.03;;;11.93;57.73
85641;BME280;76065;47.182;27.506;2024-03-22T10:08:51;100845.59;;;12.25;57.21
85641;BME280;76065;47.182;27.506;2024-03-22T10:11:17;100844.66;;;12.95;55.38
85641;BME280;76065;47.182;27.506;2024-03-22T10:13:43;100838.25;;;13.75;54.06
85641;BME280;76065;47.182;27.506;2024-03-22T10:16:10;100830.75;;;14.89;51.26
85641;BME280;76065;47.182;27.506;2024-03-22T10:18:36;100828.00;;;16.09;51.21
85641;BME280;76065;47.182;27.506;2024-03-22T10:21:03;100826.47;;;15.33;48.24
85641;BME280;76065;47.182;27.506;2024-03-22T10:23:29;100828.69;;;15.31;47.64
85641;BME280;76065;47.182;27.506;2024-03-22T10:25:58;100825.31;;;14.53;49.87
85641;BME280;76065;47.182;27.506;2024-03-22T10:28:28;100818.78;;;14.68;48.98
85641;BME280;76065;47.182;27.506;2024-03-22T10:30:53;100807.16;;;15.57;48.23
85641;BME280;76065;47.182;27.506;2024-03-22T10:33:20;100812.78;;;16.00;45.99
85641;BME280;76065;47.182;27.506;2024-03-22T10:35:52;100814.38;;;15.92;45.37
85641;BME280;76065;47.182;27.506;2024-03-22T10:38:21;100814.50;;;16.35;46.44
85641;BME280;76065;47.182;27.506;2024-03-22T10:40:48;100795.22;;;16.79;43.53
85641;BME280;76065;47.182;27.506;2024-03-22T10:43:17;100806.59;;;17.16;42.16
85641;BME280;76065;47.182;27.506;2024-03-22T10:45:47;100799.69;;;17.18;42.30
85641;BME280;76065;47.182;27.506;2024-03-22T10:48:17;100787.69;;;16.85;42.70
85641;BME280;76065;47.182;27.506;2024-03-22T10:50:43;100772.19;;;16.03;45.04
85641;BME280;76065;47.182;27.506;2024-03-22T10:53:12;100784.16;;;15.10;47.23
85641;BME280;76065;47.182;27.506;2024-03-22T10:55:42;100782.09;;;14.35;48.85
85641;BME280;76065;47.182;27.506;2024-03-22T10:58:21;100772.75;;;13.73;51.24
85641;BME280;76065;47.182;27.506;2024-03-22T11:00:47;100769.53;;;13.57;53.26
85641;BME280;76065;47.182;27.506;2024-03-22T11:03:19;100761.13;;;13.12;53.43
85641;BME280;76065;47.182;27.506;2024-03-22T11:05:46;100760.28;;;13.31;52.27
85641;BME280;76065;47.182;27.506;2024-03-22T11:08:12;100713.81;;;12.78;52.40
85641;BME280;76065;47.182;27.506;2024-03-22T11:10:38;100746.91;;;12.70;54.02
85641;BME280;76065;47.182;27.506;2024-03-22T11:13:05;100749.91;;;12.87;52.34
85641;BME280;76065;47.182;27.506;2024-03-22T11:15:32;100750.03;;;12.95;52.17
85641;BME280;76065;47.182;27.506;2024-03-22T11:17:59;100748.31;;;13.18;52.69
85641;BME280;76065;47.182;27.506;2024-03-22T11:20:26;100738.72;;;14.21;50.67
85641;BME280;76065;47.182;27.506;2024-03-22T11:22:52;100738.03;;;15.10;49.27
85641;BME280;76065;47.182;27.506;2024-03-22T11:25:18;100741.63;;;15.80;48.14
85641;BME280;76065;47.182;27.506;2024-03-22T11:27:45;100738.25;;;16.66;40.64
85641;BME280;76065;47.182;27.506;2024-03-22T11:30:11;100736.78;;;16.85;43.14
85641;BME280;76065;47.182;27.506;2024-03-22T11:32:36;100732.56;;;17.31;39.51
85641;BME280;76065;47.182;27.506;2024-03-22T11:35:11;100739.34;;;16.56;43.37
85641;BME280;76065;47.182;27.506;2024-03-22T11:37:38;100732.16;;;16.86;42.80
85641;BME280;76065;47.182;27.506;2024-03-22T11:40:05;100691.34;;;16.77;41.94
85641;BME280;76065;47.182;27.506;2024-03-22T11:42:33;100721.91;;;17.00;39.66
85641;BME280;76065;47.182;27.506;2024-03-22T11:45:01;100705.88;;;16.04;42.46
85641;BME280;76065;47.182;27.506;2024-03-22T11:47:27;100701.22;;;17.08;39.44
85641;BME280;76065;47.182;27.506;2024-03-22T11:49:54;100700.16;;;16.66;41.00
85641;BME280;76065;47.182;27.506;2024-03-22T11:52:27;100696.09;;;17.06;40.83
85641;BME280;76065;47.182;27.506;2024-03-22T11:54:53;100699.66;;;17.83;44.41
85641;BME280;76065;47.182;27.506;2024-03-22T11:57:22;100685.47;;;17.22;41.91
85641;BME280;76065;47.182;27.506;2024-03-22T11:59:48;100677.31;;;17.68;38.88
85641;BME280;76065;47.182;27.506;2024-03-22T12:02:14;100672.22;;;17.88;38.93
85641;BME280;76065;47.182;27.506;2024-03-22T12:04:47;100661.94;;;18.14;39.24
85641;BME280;76065;47.182;27.506;2024-03-22T12:07:13;100662.81;;;17.85;38.62
85641;BME280;76065;47.182;27.506;2024-03-22T12:09:43;100657.03;;;17.78;38.92
85641;BME280;76065;47.182;27.506;2024-03-22T12:12:10;100667.81;;;18.45;37.95
85641;BME280;76065;47.182;27.506;2024-03-22T12:14:36;100649.41;;;18.75;35.71
85641;BME280;76065;47.182;27.506;2024-03-22T12:17:02;100652.44;;;18.61;37.15
85641;BME280;76065;47.182;27.506;2024-03-22T12:19:29;100657.47;;;18.30;38.23
85641;BME280;76065;47.182;27.506;2024-03-22T12:21:54;100651.41;;;17.16;40.47
85641;BME280;76065;47.182;27.506;2024-03-22T12:24:21;100648.56;;;17.80;39.31
85641;BME280;76065;47.182;27.506;2024-03-22T12:26:47;100648.31;;;17.93;38.09
85641;BME280;76065;47.182;27.506;2024-03-22T12:29:14;100649.69;;;17.99;37.64
85641;BME280;76065;47.182;27.506;2024-03-22T12:31:40;100644.09;;;17.75;37.96
85641;BME280;76065;47.182;27.506;2024-03-22T12:34:06;100636.59;;;17.34;40.44
85641;BME280;76065;47.182;27.506;2024-03-22T12:36:32;100636.25;;;17.73;39.42
85641;BME280;76065;47.182;27.506;2024-03-22T12:39:01;100632.28;;;17.92;38.74
85641;BME280;76065;47.182;27.506;2024-03-22T12:41:30;100640.06;;;17.81;38.80